Time;durP1;ratioP1;P1;durP2;ratioP2;P2;SDS_P1;SDS_P2;PMS_P1;PMS_P2;Temp;Humidity;BMP_temperature;BMP_pressure;BME280_temperature;BME280_humidity;BME280_pressure;Samples;Min_cycle;Max_cycle;Signal;HPM_P1;HPM_P2
2021/04/14 00:01:08;;;;;;;3.43;1.90;;;;;;;-2.18;67.20;96672.97;5012241;28;20238;-72
2021/04/14 00:03:34;;;;;;;6.20;2.10;;;;;;;-2.16;67.19;96666.09;5028042;28;20174;-72
2021/04/14 00:06:00;;;;;;;3.60;2.27;;;;;;;-2.18;67.24;96675.50;5011745;28;20678;-72
2021/04/14 00:08:30;;;;;;;3.37;1.90;;;;;;;-2.18;67.75;96667.88;5011747;28;20201;-72
2021/04/14 00:10:55;;;;;;;3.93;2.20;;;;;;;-2.17;68.08;96669.53;5028369;28;20186;-71
2021/04/14 00:13:24;;;;;;;5.33;1.80;;;;;;;-2.03;67.56;96667.44;5011856;28;20174;-72
2021/04/14 00:15:52;;;;;;;3.73;1.80;;;;;;;-1.93;66.28;96662.91;5028157;28;20568;-71
2021/04/14 00:18:18;;;;;;;2.07;1.63;;;;;;;-1.92;66.54;96663.75;5011817;28;20175;-72
2021/04/14 00:20:44;;;;;;;3.97;1.77;;;;;;;-1.90;66.65;96660.28;5011461;28;20178;-71
2021/04/14 00:23:11;;;;;;;3.77;1.80;;;;;;;-1.92;66.94;96658.66;5010916;28;20205;-71
2021/04/14 00:25:39;;;;;;;5.43;2.23;;;;;;;-1.94;67.33;96648.53;5011368;28;20202;-71
2021/04/14 00:28:04;;;;;;;3.57;1.90;;;;;;;-1.94;66.83;96656.16;4995409;28;20198;-71
2021/04/14 00:30:30;;;;;;;2.33;1.60;;;;;;;-1.96;67.54;96651.97;5028040;28;20185;-72
2021/04/14 00:32:55;;;;;;;2.70;1.90;;;;;;;-1.95;67.46;96646.84;5027994;28;20584;-71
2021/04/14 00:35:22;;;;;;;3.33;1.77;;;;;;;-1.70;66.57;96652.03;5011211;28;20320;-71
2021/04/14 00:37:48;;;;;;;3.33;1.50;;;;;;;-1.75;66.41;96651.34;5027860;28;20225;-71
2021/04/14 00:40:19;;;;;;;4.23;1.57;;;;;;;-1.81;66.79;96648.97;5011438;28;20246;-71
2021/04/14 00:42:44;;;;;;;2.77;1.60;;;;;;;-1.85;67.33;96644.88;5011284;28;20195;-72
2021/04/14 00:45:10;;;;;;;3.87;1.50;;;;;;;-1.94;67.61;96651.06;5011174;28;20209;-71
2021/04/14 00:47:35;;;;;;;3.53;1.60;;;;;;;-1.93;66.97;96641.72;5011291;28;20202;-72
2021/04/14 00:50:01;;;;;;;2.23;1.50;;;;;;;-1.97;67.48;96645.22;5027444;28;20237;-72
2021/04/14 00:52:26;;;;;;;2.03;1.70;;;;;;;-2.02;67.64;96646.19;5011004;28;20186;-71
2021/04/14 00:54:52;;;;;;;4.70;1.63;;;;;;;-2.03;67.54;96643.69;5003881;28;20258;-71
2021/04/14 00:57:17;;;;;;;2.50;1.60;;;;;;;-2.08;68.22;96648.91;5011242;28;20178;-70
2021/04/14 00:59:42;;;;;;;3.97;1.47;;;;;;;-2.11;68.29;96643.91;5011095;28;20661;-70
2021/04/14 01:02:08;;;;;;;3.57;1.43;;;;;;;-2.15;68.18;96646.59;5010552;28;20188;-69
2021/04/14 01:04:34;;;;;;;3.33;1.77;;;;;;;-2.21;68.65;96645.03;5010628;28;20217;-72
2021/04/14 01:06:59;;;;;;;4.77;1.97;;;;;;;-2.23;68.84;96633.25;5010702;28;20186;-70
2021/04/14 01:09:25;;;;;;;8.87;2.30;;;;;;;-2.28;69.27;96638.47;5012085;28;20186;-70
2021/04/14 01:11:50;;;;;;;14.27;4.37;;;;;;;-2.26;69.20;96634.16;5010912;28;20591;-70
2021/04/14 01:14:15;;;;;;;14.00;4.60;;;;;;;-2.31;69.10;96630.91;5011805;28;20217;-70
2021/04/14 01:16:41;;;;;;;10.77;3.87;;;;;;;-2.31;69.97;96636.84;5010598;28;20653;-72
2021/04/14 01:19:07;;;;;;;9.67;3.27;;;;;;;-2.32;69.87;96634.34;5011961;28;20186;-70
2021/04/14 01:21:36;;;;;;;7.10;3.57;;;;;;;-2.37;69.59;96628.56;5010663;28;20181;-71
2021/04/14 01:24:04;;;;;;;5.63;2.20;;;;;;;-2.41;69.82;96639.69;5010663;28;20201;-71
2021/04/14 01:26:29;;;;;;;5.53;1.97;;;;;;;-2.44;69.48;96634.69;5010415;28;20214;-72
2021/04/14 01:28:54;;;;;;;3.20;2.07;;;;;;;-2.49;69.83;96626.34;5011894;28;20194;-70
2021/04/14 01:31:33;;;;;;;3.00;1.70;;;;;;;-2.47;69.74;96633.06;5010539;28;20252;-71
2021/04/14 01:34:03;;;;;;;3.17;1.63;;;;;;;-2.49;70.13;96636.50;5010367;28;20201;-72
2021/04/14 01:36:28;;;;;;;3.03;1.67;;;;;;;-2.56;68.94;96630.78;5010305;28;20689;-72
2021/04/14 01:38:54;;;;;;;3.17;1.73;;;;;;;-2.59;69.76;96626.59;5010597;28;20216;-72
2021/04/14 01:41:20;;;;;;;4.97;1.83;;;;;;;-2.59;70.30;96630.84;5010574;28;20178;-72
2021/04/14 01:43:45;;;;;;;2.13;1.57;;;;;;;-2.61;69.89;96627.53;5010394;28;20197;-72
2021/04/14 01:46:10;;;;;;;2.20;1.47;;;;;;;-2.63;69.97;96634.38;5011525;28;20253;-71
2021/04/14 01:48:36;;;;;;;6.30;1.67;;;;;;;-2.69;70.01;96622.63;4994093;28;20567;-71
2021/04/14 01:51:01;;;;;;;6.53;1.80;;;;;;;-2.69;70.64;96625.19;5010468;28;20189;-71
2021/04/14 01:53:26;;;;;;;1.90;1.60;;;;;;;-2.67;70.42;96625.97;5010363;28;20201;-71
2021/04/14 01:55:52;;;;;;;3.47;2.63;;;;;;;-2.72;69.84;96625.28;5009983;28;20198;-71
2021/04/14 01:58:19;;;;;;;3.17;2.00;;;;;;;-2.76;70.03;96621.13;5010406;28;20737;-71
2021/04/14 02:00:48;;;;;;;4.33;1.67;;;;;;;-2.75;70.29;96619.41;5010334;28;20181;-71
2021/04/14 02:03:13;;;;;;;4.53;1.80;;;;;;;-2.72;70.50;96621.91;5011568;28;20205;-72
2021/04/14 02:05:39;;;;;;;2.03;1.57;;;;;;;-2.71;70.00;96616.75;5009902;28;20700;-71
2021/04/14 02:08:05;;;;;;;3.57;2.00;;;;;;;-2.71;70.26;96621.03;5010464;28;20637;-70
2021/04/14 02:10:32;;;;;;;3.43;1.50;;;;;;;-2.80;70.34;96614.47;5010268;28;20220;-72
2021/04/14 02:13:00;;;;;;;4.17;2.20;;;;;;;-2.82;70.57;96615.41;5010165;28;20173;-71
2021/04/14 02:15:30;;;;;;;3.80;1.90;;;;;;;-2.84;70.93;96615.41;5009765;28;20212;-71
2021/04/14 02:17:56;;;;;;;3.87;2.10;;;;;;;-2.84;70.31;96617.94;5010247;28;20551;-71
2021/04/14 02:20:21;;;;;;;3.10;2.10;;;;;;;-2.80;70.88;96611.09;5010103;28;20242;-71
2021/04/14 02:22:47;;;;;;;5.27;2.07;;;;;;;-2.83;70.83;96614.53;5010272;28;20191;-71
2021/04/14 02:25:14;;;;;;;6.10;2.10;;;;;;;-2.86;70.53;96612.91;5009802;28;20224;-71
2021/04/14 02:27:39;;;;;;;5.30;1.93;;;;;;;-2.90;70.74;96605.44;5010029;28;20224;-71
2021/04/14 02:30:21;;;;;;;2.73;2.13;;;;;;;-2.94;71.38;96604.66;5011302;28;20214;-71
2021/04/14 02:32:47;;;;;;;4.53;2.00;;;;;;;-2.95;71.38;96608.06;5010077;28;20181;-71
2021/04/14 02:35:12;;;;;;;7.87;2.17;;;;;;;-2.95;71.24;96602.16;4993177;28;20219;-72
2021/04/14 02:37:37;;;;;;;3.70;2.10;;;;;;;-2.96;71.13;96600.50;5009994;28;20190;-71
2021/04/14 02:40:08;;;;;;;4.50;1.90;;;;;;;-2.96;71.67;96596.25;5011040;28;20177;-71
2021/04/14 02:42:33;;;;;;;4.13;2.30;;;;;;;-2.96;71.34;96596.25;5009964;28;20578;-72
2021/04/14 02:44:58;;;;;;;6.47;2.10;;;;;;;-2.98;71.44;96592.91;5010538;28;20208;-71
2021/04/14 02:47:24;;;;;;;4.63;2.03;;;;;;;-3.01;71.49;96587.06;5013445;28;20268;-71
2021/04/14 02:49:49;;;;;;;5.53;2.63;;;;;;;-3.05;71.76;96591.41;5013432;28;20550;-71
2021/04/14 02:52:14;;;;;;;2.53;2.27;;;;;;;-3.05;71.42;96588.03;5014760;28;20181;-71
2021/04/14 02:54:40;;;;;;;2.47;1.90;;;;;;;-3.04;71.32;96592.22;5014256;28;20208;-72
2021/04/14 02:57:05;;;;;;;3.30;2.00;;;;;;;-3.08;71.29;96590.66;5013211;28;20210;-71
2021/04/14 02:59:30;;;;;;;4.47;2.23;;;;;;;-3.07;72.07;96587.25;5013208;28;20597;-71
2021/04/14 03:01:56;;;;;;;4.60;2.20;;;;;;;-3.06;71.39;96583.81;5013268;28;20184;-72
2021/04/14 03:04:21;;;;;;;4.67;2.20;;;;;;;-3.09;71.30;96584.75;5013596;28;20250;-71
2021/04/14 03:06:46;;;;;;;4.10;2.37;;;;;;;-3.13;71.30;96580.59;5013076;28;20184;-71
2021/04/14 03:09:12;;;;;;;3.53;2.60;;;;;;;-3.11;71.56;96578.00;5014295;28;20637;-72
2021/04/14 03:11:37;;;;;;;8.87;3.07;;;;;;;-3.16;71.72;96581.53;5014128;28;20183;-71
2021/04/14 03:14:03;;;;;;;4.73;2.83;;;;;;;-3.17;71.50;96582.41;5013144;28;20242;-71
2021/04/14 03:16:28;;;;;;;6.20;3.40;;;;;;;-3.14;71.67;96579.78;5012661;28;20288;-71
2021/04/14 03:18:53;;;;;;;5.43;2.53;;;;;;;-3.14;71.76;96581.47;5012718;28;20182;-72
2021/04/14 03:21:19;;;;;;;5.73;2.37;;;;;;;-3.12;71.77;96574.66;5014003;28;20188;-72
2021/04/14 03:23:45;;;;;;;5.63;2.80;;;;;;;-3.17;71.40;96576.50;5012799;28;20200;-72
2021/04/14 03:26:10;;;;;;;4.60;2.63;;;;;;;-3.16;71.42;96570.53;5013898;28;20633;-72
2021/04/14 03:28:35;;;;;;;3.43;2.37;;;;;;;-3.17;71.22;96564.63;5012634;28;20197;-71
2021/04/14 03:31:01;;;;;;;4.43;2.53;;;;;;;-3.18;71.33;96565.50;5012617;28;20234;-71
2021/04/14 03:33:26;;;;;;;8.17;2.70;;;;;;;-3.21;71.91;96570.63;5013536;28;20184;-72
2021/04/14 03:35:52;;;;;;;3.57;2.40;;;;;;;-3.21;71.99;96560.47;5013506;28;20213;-72
2021/04/14 03:38:18;;;;;;;4.00;2.33;;;;;;;-3.20;71.56;96557.06;5013781;28;20182;-71
2021/04/14 03:40:43;;;;;;;3.77;2.40;;;;;;;-3.22;71.84;96566.44;5013763;28;20238;-72
2021/04/14 03:43:08;;;;;;;2.60;2.30;;;;;;;-3.24;71.66;96558.03;5012387;28;20178;-71
2021/04/14 03:45:44;;;;;;;4.53;3.27;;;;;;;-3.28;71.63;96561.50;5012055;28;20196;-71
2021/04/14 03:48:10;;;;;;;3.47;2.80;;;;;;;-3.27;71.50;96559.78;5012134;28;20184;-72
2021/04/14 03:50:36;;;;;;;7.67;2.97;;;;;;;-3.26;72.39;96559.78;5028760;28;20185;-72
2021/04/14 03:53:14;;;;;;;4.67;2.30;;;;;;;-3.30;72.61;96565.78;5012244;28;20198;-71
2021/04/14 03:55:40;;;;;;;4.83;2.80;;;;;;;-3.31;72.37;96569.22;5012922;28;20211;-72
2021/04/14 03:58:05;;;;;;;7.70;3.10;;;;;;;-3.34;73.06;96559.13;5012427;28;20272;-71
2021/04/14 04:00:30;;;;;;;5.20;2.90;;;;;;;-3.36;72.30;96557.47;5011877;28;20212;-71
2021/04/14 04:02:55;;;;;;;4.30;2.80;;;;;;;-3.32;72.58;96561.63;5011819;28;20192;-72
2021/04/14 04:05:21;;;;;;;7.50;3.50;;;;;;;-3.32;72.77;96564.16;5011703;28;20243;-71
2021/04/14 04:07:46;;;;;;;7.87;3.77;;;;;;;-3.31;72.40;96564.13;5012047;28;20179;-72
2021/04/14 04:10:12;;;;;;;7.40;3.43;;;;;;;-3.34;72.24;96566.75;5013573;28;20269;-72
2021/04/14 04:12:37;;;;;;;4.07;3.50;;;;;;;-3.33;72.32;96563.34;5011824;28;20180;-72
2021/04/14 04:15:05;;;;;;;7.23;3.13;;;;;;;-3.34;72.53;96560.84;5012689;28;20243;-71
2021/04/14 04:17:30;;;;;;;5.70;3.20;;;;;;;-3.36;72.02;96560.03;5011672;28;20240;-71
2021/04/14 04:19:56;;;;;;;5.73;2.90;;;;;;;-3.39;72.72;96566.03;5011776;28;20185;-72
2021/04/14 04:22:21;;;;;;;5.00;3.03;;;;;;;-3.40;73.01;96564.34;5011713;28;20186;-71
2021/04/14 04:24:48;;;;;;;4.70;2.40;;;;;;;-3.36;72.38;96565.94;5012566;28;20280;-71
2021/04/14 04:27:14;;;;;;;5.57;2.47;;;;;;;-3.34;73.14;96564.22;5011448;28;20204;-71
2021/04/14 04:29:39;;;;;;;5.13;2.63;;;;;;;-3.33;73.05;96570.13;5011647;28;20182;-72
2021/04/14 04:32:05;;;;;;;8.10;2.77;;;;;;;-3.33;72.68;96565.03;5012720;28;20697;-71
2021/04/14 04:34:30;;;;;;;4.27;2.20;;;;;;;-3.30;73.05;96570.03;5012454;28;20207;-71
2021/04/14 04:36:56;;;;;;;3.40;2.30;;;;;;;-3.30;72.46;96565.78;5011457;28;20262;-71
2021/04/14 04:39:21;;;;;;;4.07;2.20;;;;;;;-3.28;72.79;96564.03;5012637;28;20598;-72
2021/04/14 04:41:46;;;;;;;5.43;2.37;;;;;;;-3.28;73.16;96564.03;5012428;28;20192;-71
2021/04/14 04:44:12;;;;;;;4.23;2.43;;;;;;;-3.24;72.31;96565.63;5012425;28;20226;-72
2021/04/14 04:46:37;;;;;;;3.73;2.70;;;;;;;-3.20;72.34;96572.28;5011123;28;20655;-70
2021/04/14 04:49:03;;;;;;;7.57;2.73;;;;;;;-3.15;72.18;96578.09;5011327;28;20175;-71
2021/04/14 04:51:28;;;;;;;3.40;2.70;;;;;;;-3.10;72.25;96572.88;5012665;28;20245;-70
2021/04/14 04:53:54;;;;;;;4.97;2.67;;;;;;;-3.00;72.20;96573.50;5012259;28;20614;-70
2021/04/14 04:56:20;;;;;;;4.63;2.80;;;;;;;-2.94;71.99;96575.88;5011852;28;20197;-70
2021/04/14 04:58:45;;;;;;;5.33;2.90;;;;;;;-2.81;71.70;96579.75;4994721;28;20214;-72
2021/04/14 05:01:10;;;;;;;6.50;3.40;;;;;;;-2.54;71.12;96585.78;5010890;28;20182;-71
2021/04/14 05:03:36;;;;;;;7.03;3.00;;;;;;;-2.41;69.96;96584.56;5012217;28;20561;-71
2021/04/14 05:06:01;;;;;;;3.47;2.03;;;;;;;-2.31;69.89;96585.13;5010703;28;20177;-71
2021/04/14 05:08:27;;;;;;;5.13;2.23;;;;;;;-2.23;69.69;96583.19;5010557;28;20659;-72
2021/04/14 05:10:53;;;;;;;5.10;2.43;;;;;;;-2.13;69.98;96583.75;5010792;28;20192;-71
2021/04/14 05:13:19;;;;;;;4.67;2.40;;;;;;;-2.08;69.50;96592.91;5011078;28;20177;-71
2021/04/14 05:15:44;;;;;;;5.23;2.40;;;;;;;-2.06;69.33;96590.31;5011560;28;20210;-72
2021/04/14 05:18:09;;;;;;;3.57;2.30;;;;;;;-2.00;69.37;96596.06;5012241;28;20546;-71
2021/04/14 05:20:35;;;;;;;5.30;2.40;;;;;;;-1.95;68.84;96597.63;4994040;28;20641;-71
2021/04/14 05:23:00;;;;;;;5.83;2.90;;;;;;;-1.86;69.10;96598.19;5010751;28;20199;-71
2021/04/14 05:25:30;;;;;;;13.40;6.57;;;;;;;-1.77;68.52;96592.84;5006673;28;20203;-71
2021/04/14 05:28:02;;;;;;;10.83;5.50;;;;;;;-1.71;68.93;96602.81;5005530;28;20558;-72
2021/04/14 05:30:28;;;;;;;12.23;5.97;;;;;;;-1.63;68.24;96594.09;4981452;28;20181;-71
2021/04/14 05:32:53;;;;;;;15.70;7.10;;;;;;;-1.53;68.41;96601.41;4991713;28;20188;-72
2021/04/14 05:35:18;;;;;;;13.23;6.30;;;;;;;-1.39;67.88;96603.53;4992939;28;20256;-71
2021/04/14 05:37:44;;;;;;;14.63;7.00;;;;;;;-1.16;68.08;96603.56;4997853;28;20248;-71
2021/04/14 05:40:09;;;;;;;14.57;7.03;;;;;;;-1.02;67.31;96600.59;4988384;28;20180;-71
2021/04/14 05:42:39;;;;;;;16.50;7.90;;;;;;;-0.82;66.81;96605.00;4995197;28;20187;-70
2021/04/14 05:45:05;;;;;;;15.27;8.67;;;;;;;-0.76;65.81;96607.34;4996280;28;20279;-70
2021/04/14 05:47:31;;;;;;;12.80;8.10;;;;;;;-0.61;66.40;96609.38;4996557;28;20236;-71
2021/04/14 05:49:56;;;;;;;20.13;13.00;;;;;;;-0.62;65.59;96606.84;4995068;28;20199;-70
2021/04/14 05:52:21;;;;;;;14.57;10.40;;;;;;;-0.54;65.25;96609.97;4984588;28;20186;-71
2021/04/14 05:54:47;;;;;;;15.30;10.37;;;;;;;-0.43;65.21;96605.34;4988565;28;20767;-71
2021/04/14 05:57:12;;;;;;;11.87;8.67;;;;;;;-0.34;65.10;96607.56;4984240;28;20211;-71
2021/04/14 05:59:37;;;;;;;11.00;6.97;;;;;;;-0.28;65.22;96612.41;4998614;28;20175;-70
2021/04/14 06:02:02;;;;;;;8.87;5.73;;;;;;;-0.21;64.49;96613.03;4996571;28;20241;-71
2021/04/14 06:04:28;;;;;;;8.50;5.77;;;;;;;-0.22;64.66;96611.38;4999896;28;20301;-71
2021/04/14 06:06:53;;;;;;;7.40;5.47;;;;;;;-0.26;64.72;96617.50;4986069;28;20654;-71
2021/04/14 06:09:18;;;;;;;8.87;5.77;;;;;;;-0.11;64.82;96618.63;4985122;28;20278;-75
2021/04/14 06:11:44;;;;;;;8.80;4.17;;;;;;;-0.14;64.61;96621.31;4995559;28;20196;-73
2021/04/14 06:14:10;;;;;;;8.57;4.40;;;;;;;-0.05;64.80;96619.25;5000604;28;20203;-72
2021/04/14 06:16:35;;;;;;;7.43;4.13;;;;;;;0.04;64.93;96620.63;4981705;28;20206;-70
2021/04/14 06:19:00;;;;;;;6.17;4.23;;;;;;;0.17;64.22;96624.34;4983872;28;20189;-71
2021/04/14 06:21:27;;;;;;;5.47;3.87;;;;;;;0.25;64.52;96616.41;5002646;28;20273;-70
2021/04/14 06:23:53;;;;;;;8.37;4.17;;;;;;;0.30;64.88;96613.69;4995365;28;20200;-70
2021/04/14 06:26:29;;;;;;;8.33;4.50;;;;;;;0.44;64.14;96616.53;5001331;28;20176;-71
2021/04/14 06:28:54;;;;;;;6.30;4.07;;;;;;;0.73;64.07;96615.38;4999690;28;20309;-71
2021/04/14 06:31:20;;;;;;;8.63;4.67;;;;;;;0.95;63.11;96613.59;5001127;28;20266;-71
2021/04/14 06:33:49;;;;;;;5.13;4.00;;;;;;;1.30;62.98;96617.25;4988256;28;20204;-71
2021/04/14 06:36:14;;;;;;;4.63;3.77;;;;;;;1.67;61.82;96620.78;4984334;28;20199;-72
2021/04/14 06:38:45;;;;;;;4.87;3.53;;;;;;;1.96;60.36;96615.22;4988823;28;20241;-71
2021/04/14 06:44:27;;;;;;;5.27;2.80;;;;;;;2.66;57.91;96617.97;5016859;28;20219;-71
2021/04/14 06:46:53;;;;;;;9.10;3.50;;;;;;;2.77;57.27;96623.41;5020951;28;20188;-71
2021/04/14 06:49:21;;;;;;;5.90;2.90;;;;;;;2.94;56.60;96620.84;4988376;28;20190;-70
2021/04/14 06:52:06;;;;;;;4.63;2.40;;;;;;;2.94;55.34;96623.41;5002685;28;20725;-71
2021/04/14 06:54:49;;;;;;;7.00;2.40;;;;;;;2.78;55.48;96614.81;4987859;28;20668;-71
2021/04/14 06:57:21;;;;;;;3.60;1.90;;;;;;;2.77;54.88;96620.84;4991722;28;20294;-72
2021/04/14 06:59:49;;;;;;;5.40;2.50;;;;;;;2.58;54.23;96618.31;4988478;28;20213;-72
2021/04/14 07:02:40;;;;;;;4.53;1.70;;;;;;;2.39;54.41;96615.81;4981422;28;20171;-72
2021/04/14 07:05:12;;;;;;;3.03;1.60;;;;;;;2.19;55.31;96616.69;4973816;28;20238;-72
2021/04/14 07:07:39;;;;;;;3.23;1.40;;;;;;;2.21;55.06;96619.22;4986166;28;20197;-73
2021/04/14 07:10:26;;;;;;;2.83;1.60;;;;;;;2.14;55.47;96621.22;4983105;28;20600;-72
2021/04/14 07:12:53;;;;;;;4.63;1.67;;;;;;;2.23;54.31;96627.66;5008601;28;20266;-72
2021/04/14 07:15:20;;;;;;;5.30;2.03;;;;;;;1.73;57.21;96623.06;4987679;28;20295;-72
2021/04/14 07:18:22;;;;;;;3.53;2.03;;;;;;;1.36;59.30;96624.66;4982947;28;20187;-72
2021/04/14 07:21:10;;;;;;;2.13;1.73;;;;;;;1.20;59.99;96618.53;4983511;28;20175;-72
2021/04/14 07:23:59;;;;;;;4.57;2.20;;;;;;;1.15;60.42;96620.47;4997570;28;20252;-73
2021/04/14 07:26:37;;;;;;;9.00;2.80;;;;;;;0.97;59.06;96621.22;4984265;28;20640;-72
2021/04/14 07:29:26;;;;;;;5.33;2.90;;;;;;;1.12;59.50;96626.53;5004703;28;20282;-73
2021/04/14 07:31:58;;;;;;;4.00;2.13;;;;;;;1.08;59.77;96621.63;4998268;28;20180;-73
2021/04/14 07:34:35;;;;;;;3.20;1.90;;;;;;;1.21;59.94;96627.88;5006750;28;20222;-73
2021/04/14 07:37:11;;;;;;;7.23;2.13;;;;;;;1.24;60.78;96626.94;5001679;28;20202;-73
2021/04/14 07:39:50;;;;;;;6.17;2.70;;;;;;;1.41;59.94;96622.75;5020621;28;20656;-74
2021/04/14 07:42:33;;;;;;;5.67;2.80;;;;;;;1.72;59.62;96626.53;5018306;28;20179;-74
2021/04/14 07:45:18;;;;;;;6.10;4.13;;;;;;;1.86;58.90;96621.66;4986333;28;20206;-74
2021/04/14 07:47:52;;;;;;;5.37;2.20;;;;;;;1.52;58.34;96624.84;4988128;28;20309;-73
2021/04/14 07:50:20;;;;;;;6.77;2.70;;;;;;;1.48;58.56;96622.47;4997769;28;20187;-73
2021/04/14 07:52:45;;;;;;;4.23;1.90;;;;;;;1.73;58.51;96623.06;4997791;28;20603;-73
2021/04/14 07:55:32;;;;;;;4.33;2.67;;;;;;;2.06;57.61;96615.63;4997606;28;20206;-72
2021/04/14 07:58:06;;;;;;;6.60;3.73;;;;;;;2.46;55.70;96614.59;5004506;28;20199;-73
2021/04/14 08:00:41;;;;;;;4.37;2.00;;;;;;;1.95;56.68;96622.97;4985619;28;20655;-77
2021/04/14 08:03:23;;;;;;;3.23;2.10;;;;;;;1.98;56.48;96621.09;4987722;28;20550;-78
2021/04/14 08:05:48;;;;;;;3.63;2.03;;;;;;;1.78;57.19;96621.16;5002980;28;20210;-77
2021/04/14 08:08:20;;;;;;;4.43;2.00;;;;;;;1.79;57.74;96620.25;4980450;28;22330;-78
2021/04/14 08:11:01;;;;;;;10.13;3.13;;;;;;;1.84;57.46;96615.72;4994698;28;20214;-78
2021/04/14 08:13:30;;;;;;;2.70;1.97;;;;;;;1.78;57.13;96616.03;4976701;28;20187;-78
2021/04/14 08:15:56;;;;;;;3.97;2.50;;;;;;;2.19;56.86;96615.88;4988584;28;20558;-78
2021/04/14 08:18:31;;;;;;;5.43;2.27;;;;;;;2.26;56.69;96612.13;4984400;28;20267;-77
2021/04/14 08:21:08;;;;;;;6.90;2.50;;;;;;;2.65;55.25;96612.00;4989386;28;20207;-77
2021/04/14 08:23:33;;;;;;;4.50;2.53;;;;;;;2.90;55.25;96605.66;5007556;28;20646;-78
2021/04/14 08:26:00;;;;;;;3.60;2.40;;;;;;;3.02;54.83;96603.34;4988846;28;20176;-78
2021/04/14 08:28:41;;;;;;;3.50;1.90;;;;;;;2.92;54.02;96606.44;4984302;28;20203;-78
2021/04/14 08:31:08;;;;;;;4.40;2.30;;;;;;;2.89;54.10;96612.53;4990115;28;20187;-78
2021/04/14 08:33:33;;;;;;;5.93;2.30;;;;;;;2.63;54.93;96611.22;4990552;28;20195;-77
2021/04/14 08:36:11;;;;;;;4.40;2.10;;;;;;;2.48;55.33;96610.25;4990573;28;20203;-78
2021/04/14 08:38:36;;;;;;;4.73;2.50;;;;;;;2.42;54.06;96602.00;4995369;28;20191;-79
2021/04/14 08:41:03;;;;;;;3.37;2.00;;;;;;;2.68;53.84;96603.31;4981771;28;20200;-78
2021/04/14 08:43:41;;;;;;;6.03;2.37;;;;;;;2.77;54.17;96605.44;4969499;28;21418;-77
2021/04/14 08:46:39;;;;;;;6.00;2.40;;;;;;;2.88;53.57;96608.31;5003409;28;20187;-77
2021/04/14 08:49:18;;;;;;;5.13;1.93;;;;;;;2.94;53.57;96602.06;4996338;28;20188;-77
2021/04/14 08:51:45;;;;;;;5.47;1.90;;;;;;;3.07;53.08;96608.25;5003690;28;20213;-76
2021/04/14 08:54:14;;;;;;;4.77;2.13;;;;;;;2.99;53.87;96606.03;5018881;28;20207;-77
2021/04/14 08:56:40;;;;;;;3.77;2.33;;;;;;;3.03;53.46;96602.44;4983759;28;20204;-75
2021/04/14 08:59:05;;;;;;;3.77;2.57;;;;;;;2.81;52.84;96612.06;4983430;28;20194;-75
2021/04/14 09:01:32;;;;;;;4.17;2.10;;;;;;;3.01;52.03;96606.00;4980361;28;20192;-75
2021/04/14 09:04:00;;;;;;;6.03;2.50;;;;;;;3.50;51.66;96606.06;4990121;28;20348;-78
2021/04/14 09:06:26;;;;;;;5.03;2.43;;;;;;;3.70;50.76;96596.41;5005876;28;20171;-76
2021/04/14 09:08:53;;;;;;;5.67;2.43;;;;;;;3.94;50.75;96598.63;4991755;28;20391;-73
2021/04/14 09:11:24;;;;;;;4.63;2.50;;;;;;;4.24;51.89;96599.56;4986589;28;20241;-73
2021/04/14 09:14:01;;;;;;;2.97;2.10;;;;;;;4.35;51.71;96595.56;4969284;28;20214;-74
2021/04/14 09:16:36;;;;;;;4.20;2.20;;;;;;;4.29;48.40;96598.47;5011762;28;20214;-75
2021/04/14 09:19:13;;;;;;;6.40;2.50;;;;;;;3.69;50.19;96597.34;4998326;28;20183;-73
2021/04/14 09:21:45;;;;;;;3.70;2.20;;;;;;;3.74;48.42;96599.69;4984841;28;20711;-73
2021/04/14 09:24:28;;;;;;;3.10;2.30;;;;;;;3.73;48.85;96592.06;4985371;28;20265;-74
2021/04/14 09:26:56;;;;;;;4.67;2.43;;;;;;;3.81;49.00;96588.19;4996343;28;20217;-73
2021/04/14 09:29:43;;;;;;;3.37;2.00;;;;;;;4.14;47.92;96584.69;4981966;28;20259;-73
2021/04/14 09:32:11;;;;;;;5.63;2.40;;;;;;;3.94;48.26;96583.19;4992416;28;20187;-71
2021/04/14 09:34:48;;;;;;;7.17;3.00;;;;;;;3.71;49.07;96584.44;4986156;28;20699;-77
2021/04/14 09:37:13;;;;;;;5.17;3.10;;;;;;;3.93;47.93;96584.13;4984324;28;20348;-76
2021/04/14 09:40:00;;;;;;;7.07;2.60;;;;;;;4.06;47.41;96581.72;5000422;28;20269;-77
2021/04/14 09:42:26;;;;;;;2.70;1.60;;;;;;;4.08;44.77;96580.75;5016443;28;20276;-76
2021/04/14 09:44:55;;;;;;;3.27;1.83;;;;;;;3.81;44.55;96577.91;4994473;28;20298;-73
2021/04/14 09:47:23;;;;;;;2.70;1.73;;;;;;;3.79;44.64;96576.31;4984399;28;20203;-78
2021/04/14 09:49:50;;;;;;;3.23;1.70;;;;;;;3.94;43.67;96568.63;5003086;28;20186;-74
2021/04/14 09:52:20;;;;;;;3.37;2.40;;;;;;;3.52;47.25;96569.13;4987808;28;20184;-71
2021/04/14 09:54:46;;;;;;;3.67;2.23;;;;;;;3.61;47.74;96570.38;4996217;28;20206;-70
2021/04/14 09:57:16;;;;;;;3.17;1.80;;;;;;;3.27;47.57;96567.03;4991123;28;20207;-73
2021/04/14 09:59:42;;;;;;;4.20;2.20;;;;;;;3.12;50.97;96573.75;5002546;28;20177;-71
2021/04/14 10:02:11;;;;;;;3.67;2.57;;;;;;;2.82;55.09;96586.34;4989460;28;20238;-73
2021/04/14 10:04:37;;;;;;;4.80;2.60;;;;;;;2.25;57.47;96575.41;4988161;28;20363;-74
2021/04/14 10:07:05;;;;;;;4.10;2.77;;;;;;;2.26;59.16;96587.34;4987706;28;20255;-74
2021/04/14 10:09:36;;;;;;;5.97;2.83;;;;;;;1.90;61.70;96586.47;4989350;28;20196;-74
2021/04/14 10:12:15;;;;;;;6.87;2.70;;;;;;;1.62;64.64;96592.00;4998371;28;20547;-72
2021/04/14 10:14:48;;;;;;;5.53;3.40;;;;;;;1.51;66.08;96577.13;5000019;28;20282;-72
2021/04/14 10:17:17;;;;;;;9.00;3.40;;;;;;;1.67;65.08;96585.75;4998101;28;20629;-73
2021/04/14 10:19:43;;;;;;;8.80;3.57;;;;;;;1.29;66.40;96587.44;4985570;28;20196;-74
2021/04/14 10:22:17;;;;;;;4.83;3.10;;;;;;;1.25;66.14;96587.66;4988380;28;20663;-73
2021/04/14 10:24:43;;;;;;;5.90;3.10;;;;;;;1.31;66.14;96592.47;4986885;28;20254;-73
2021/04/14 10:27:09;;;;;;;4.73;3.13;;;;;;;1.24;66.82;96591.94;4987998;28;20175;-74
2021/04/14 10:29:39;;;;;;;4.97;3.40;;;;;;;1.24;66.90;96586.81;4984553;28;20191;-73
2021/04/14 10:32:05;;;;;;;3.63;3.33;;;;;;;1.36;66.13;96583.72;4985468;28;20194;-73
2021/04/14 10:34:35;;;;;;;4.07;3.03;;;;;;;1.46;65.22;96586.72;4987274;28;20199;-73
2021/04/14 10:37:12;;;;;;;5.73;4.23;;;;;;;1.44;65.81;96582.56;4989452;28;20298;-72
2021/04/14 10:39:38;;;;;;;6.10;3.63;;;;;;;1.45;66.23;96579.09;4970445;28;20674;-72
2021/04/14 10:42:19;;;;;;;4.97;4.50;;;;;;;1.72;65.87;96572.75;4992192;28;20182;-73
2021/04/14 10:44:45;;;;;;;7.27;6.17;;;;;;;2.04;65.44;96573.03;4983742;28;20207;-72
2021/04/14 10:47:20;;;;;;;6.77;4.70;;;;;;;1.97;64.55;96570.75;4986754;28;20199;-72
2021/04/14 10:49:46;;;;;;;3.67;3.37;;;;;;;2.30;64.03;96572.66;4983577;28;20689;-73
2021/04/14 10:52:19;;;;;;;7.77;5.40;;;;;;;2.68;62.39;96567.44;4990309;28;20192;-73
2021/04/14 10:54:47;;;;;;;6.90;4.23;;;;;;;2.97;61.46;96569.38;4982914;28;20207;-71
2021/04/14 10:57:18;;;;;;;4.43;3.50;;;;;;;3.11;60.70;96569.53;4992594;28;20353;-71
2021/04/14 10:59:45;;;;;;;4.97;3.33;;;;;;;3.17;60.44;96565.81;4987615;28;20183;-72
2021/04/14 11:02:18;;;;;;;4.83;3.80;;;;;;;3.16;59.34;96555.63;4993064;28;20266;-72
2021/04/14 11:04:44;;;;;;;3.60;3.30;;;;;;;2.96;60.39;96547.19;4986248;28;20216;-72
2021/04/14 11:07:18;;;;;;;4.20;3.77;;;;;;;3.48;59.49;96546.28;4987151;28;20390;-71
2021/04/14 11:09:46;;;;;;;5.23;3.13;;;;;;;3.93;59.36;96540.44;4984968;28;20266;-72
2021/04/14 11:12:16;;;;;;;4.53;2.90;;;;;;;4.09;57.77;96536.13;4985838;28;20186;-72
2021/04/14 11:14:44;;;;;;;5.17;4.17;;;;;;;4.20;57.41;96536.34;4994525;28;20258;-73
2021/04/14 11:17:18;;;;;;;6.47;3.30;;;;;;;4.67;57.28;96530.28;4981107;28;20220;-78
2021/04/14 11:19:53;;;;;;;4.73;3.30;;;;;;;4.96;56.46;96532.94;4992812;28;20274;-75
2021/04/14 11:22:18;;;;;;;5.93;2.87;;;;;;;5.22;55.13;96527.09;4991482;28;20183;-73
2021/04/14 11:24:47;;;;;;;4.53;2.63;;;;;;;5.44;54.67;96533.53;4982145;28;20664;-74
2021/04/14 11:27:23;;;;;;;4.07;2.73;;;;;;;5.20;52.31;96521.19;4985488;28;20186;-74
2021/04/14 11:29:50;;;;;;;5.27;3.87;;;;;;;5.39;51.88;96528.66;5005143;28;20186;-74
2021/04/14 11:32:21;;;;;;;5.40;3.17;;;;;;;5.17;51.05;96525.69;4987042;28;20182;-74
2021/04/14 11:34:55;;;;;;;6.37;3.70;;;;;;;5.88;52.27;96526.50;4984488;28;20674;-73
2021/04/14 11:37:47;;;;;;;4.40;3.30;;;;;;;5.64;51.90;96530.56;4984840;28;20215;-74
2021/04/14 11:40:18;;;;;;;6.50;2.73;;;;;;;5.90;49.05;96522.09;4989259;28;20202;-74
2021/04/14 11:43:00;;;;;;;3.53;2.63;;;;;;;5.40;50.44;96523.41;5014871;28;20283;-72
2021/04/14 11:45:37;;;;;;;4.27;2.57;;;;;;;5.19;50.75;96519.53;4973595;28;20200;-73
2021/04/14 11:48:15;;;;;;;5.37;2.60;;;;;;;5.11;52.17;96516.56;4993000;28;20273;-73